VLG3EL LEBL-LEMG
Flight info
| Callsign | VLG3EL |
|---|---|
| Flight time | 1h 18m |
| Altitude | 31000 |
| Route | SENIA Z596 NEXAS N975 ADUXO N869 BLN |
| Aircraft | A320/M-SDE3FGHIRWY/LB1 |
Departure
| Time | 2026-05-04 09:07 |
|---|---|
| Airport | Josep Tarradellas Barcelona-El Prat Airport (LEBL) |
Arrival
| Time | 2026-05-04 10:26 |
|---|---|
| Airport | Málaga-Costa del Sol Airport (LEMG) |
| Time | Latitude | Longitude | Altitude | Speed | Heading |
|---|---|---|---|---|---|
| 2026-05-04 08:27 | 41.29008 | 2.06970 | 19 ft | 0 kts | 155° |
| 2026-05-04 08:55 | 41.29023 | 2.06961 | 20 ft | 4 kts | 155° |
| 2026-05-04 08:55 | 41.29047 | 2.06946 | 21 ft | 2 kts | 155° |
| 2026-05-04 08:55 | 41.29064 | 2.06933 | 21 ft | 4 kts | 111° |
| 2026-05-04 08:57 | 41.29056 | 2.06883 | 20 ft | 0 kts | 65° |
| 2026-05-04 09:01 | 41.29509 | 2.08046 | 15 ft | 19 kts | 66° |
| 2026-05-04 09:01 | 41.29563 | 2.08209 | 15 ft | 18 kts | 79° |
| 2026-05-04 09:01 | 41.29485 | 2.08308 | 18 ft | 16 kts | 157° |
| 2026-05-04 09:01 | 41.29375 | 2.08374 | 19 ft | 19 kts | 154° |
| 2026-05-04 09:02 | 41.29256 | 2.08446 | 21 ft | 18 kts | 156° |
| 2026-05-04 09:02 | 41.29133 | 2.08519 | 17 ft | 21 kts | 157° |
| 2026-05-04 09:02 | 41.28998 | 2.08602 | 18 ft | 21 kts | 156° |
| 2026-05-04 09:02 | 41.28873 | 2.08692 | 16 ft | 19 kts | 122° |
| 2026-05-04 09:03 | 41.28908 | 2.08853 | 17 ft | 19 kts | 66° |
| 2026-05-04 09:03 | 41.28962 | 2.09017 | 16 ft | 20 kts | 64° |
| 2026-05-04 09:03 | 41.29020 | 2.09187 | 19 ft | 21 kts | 64° |
| 2026-05-04 09:03 | 41.29081 | 2.09374 | 18 ft | 23 kts | 65° |
| 2026-05-04 09:04 | 41.29159 | 2.09600 | 17 ft | 30 kts | 65° |
| 2026-05-04 09:04 | 41.29248 | 2.09852 | 17 ft | 29 kts | 63° |
| 2026-05-04 09:04 | 41.29229 | 2.09986 | 15 ft | 17 kts | 170° |
| 2026-05-04 09:04 | 41.29132 | 2.09909 | 18 ft | 16 kts | 217° |
| 2026-05-04 09:05 | 41.29045 | 2.09806 | 19 ft | 18 kts | 229° |
| 2026-05-04 09:05 | 41.29026 | 2.09761 | 19 ft | 0 kts | 245° |
| 2026-05-04 09:05 | 41.29016 | 2.09733 | 21 ft | 18 kts | 246° |
| 2026-05-04 09:05 | 41.28861 | 2.09276 | 18 ft | 87 kts | 245° |
| 2026-05-04 09:06 | 41.28534 | 2.08335 | 22 ft | 135 kts | 245° |
| 2026-05-04 09:07 | 41.21165 | 2.05819 | 2589 ft | 218 kts | 184° |
| 2026-05-04 09:08 | 41.19668 | 2.05763 | 3362 ft | 218 kts | 184° |
| 2026-05-04 09:08 | 41.18135 | 2.05684 | 4173 ft | 218 kts | 190° |
| 2026-05-04 09:08 | 41.16705 | 2.05101 | 4801 ft | 225 kts | 209° |
| 2026-05-04 09:08 | 41.15288 | 2.04129 | 5471 ft | 232 kts | 209° |
| 2026-05-04 09:09 | 41.13845 | 2.03136 | 6277 ft | 235 kts | 208° |
| 2026-05-04 09:09 | 41.12391 | 2.02137 | 7074 ft | 237 kts | 208° |
| 2026-05-04 09:09 | 41.10921 | 2.01130 | 7867 ft | 239 kts | 208° |
| 2026-05-04 09:09 | 41.09430 | 2.00110 | 8674 ft | 242 kts | 208° |
| 2026-05-04 09:10 | 41.08017 | 1.98894 | 9466 ft | 244 kts | 223° |
| 2026-05-04 09:10 | 41.06965 | 1.97107 | 10099 ft | 255 kts | 242° |
| 2026-05-04 09:10 | 41.06357 | 1.94787 | 10359 ft | 279 kts | 253° |
| 2026-05-04 09:10 | 41.05835 | 1.92197 | 10565 ft | 302 kts | 253° |
| 2026-05-04 09:11 | 41.05332 | 1.89385 | 10715 ft | 326 kts | 261° |
| 2026-05-04 09:11 | 41.05115 | 1.86331 | 10851 ft | 347 kts | 262° |
| 2026-05-04 09:11 | 41.04781 | 1.83122 | 11303 ft | 355 kts | 259° |
| 2026-05-04 09:11 | 41.04373 | 1.79879 | 11950 ft | 358 kts | 258° |
| 2026-05-04 09:12 | 41.03945 | 1.76626 | 12626 ft | 360 kts | 258° |
| 2026-05-04 09:12 | 41.03522 | 1.73355 | 13295 ft | 362 kts | 258° |
| 2026-05-04 09:14 | 41.00754 | 1.49854 | 17248 ft | 378 kts | 259° |
| 2026-05-04 09:14 | 41.00347 | 1.46397 | 17815 ft | 381 kts | 259° |
| 2026-05-04 09:14 | 40.99936 | 1.42924 | 18349 ft | 383 kts | 259° |
| 2026-05-04 09:14 | 40.99523 | 1.39425 | 18829 ft | 386 kts | 259° |
| 2026-05-04 09:15 | 40.99109 | 1.35912 | 19330 ft | 388 kts | 259° |
| 2026-05-04 09:15 | 40.98691 | 1.32380 | 19837 ft | 389 kts | 258° |
| 2026-05-04 09:15 | 40.98269 | 1.28827 | 20335 ft | 391 kts | 258° |
| 2026-05-04 09:15 | 40.97843 | 1.25262 | 20818 ft | 393 kts | 258° |
| 2026-05-04 09:17 | 40.94313 | 0.96151 | 24056 ft | 409 kts | 257° |
| 2026-05-04 09:18 | 40.93855 | 0.92432 | 24416 ft | 410 kts | 257° |
| 2026-05-04 09:18 | 40.93395 | 0.88699 | 24776 ft | 411 kts | 257° |
| 2026-05-04 09:18 | 40.92936 | 0.84966 | 25137 ft | 412 kts | 257° |
| 2026-05-04 09:18 | 40.92475 | 0.81221 | 25545 ft | 412 kts | 257° |
| 2026-05-04 09:19 | 40.92018 | 0.77505 | 26078 ft | 408 kts | 257° |
| 2026-05-04 09:19 | 40.91561 | 0.73812 | 26627 ft | 405 kts | 257° |
| 2026-05-04 09:19 | 40.91107 | 0.70152 | 27187 ft | 402 kts | 257° |
| 2026-05-04 09:19 | 40.90654 | 0.66518 | 27755 ft | 398 kts | 257° |
| 2026-05-04 09:20 | 40.90206 | 0.62918 | 28319 ft | 395 kts | 257° |
| 2026-05-04 09:20 | 40.89760 | 0.59348 | 28862 ft | 393 kts | 257° |
| 2026-05-04 09:20 | 40.89318 | 0.55847 | 29458 ft | 389 kts | 257° |
| 2026-05-04 09:20 | 40.88873 | 0.52342 | 30072 ft | 385 kts | 257° |
| 2026-05-04 09:21 | 40.88431 | 0.48863 | 30566 ft | 383 kts | 256° |
| 2026-05-04 09:21 | 40.87989 | 0.45401 | 30904 ft | 382 kts | 256° |
| 2026-05-04 09:21 | 40.87153 | 0.38386 | 30990 ft | 396 kts | 261° |
| 2026-05-04 09:22 | 40.87132 | 0.30975 | 30993 ft | 406 kts | 265° |
| 2026-05-04 09:22 | 40.87171 | 0.23506 | 30995 ft | 407 kts | 265° |
| 2026-05-04 09:23 | 40.87202 | 0.16033 | 30995 ft | 407 kts | 265° |
| 2026-05-04 09:23 | 40.87218 | 0.08548 | 30995 ft | 408 kts | 265° |
| 2026-05-04 09:25 | 40.87256 | -0.21380 | 30991 ft | 408 kts | 265° |
| 2026-05-04 09:26 | 40.87098 | -0.28857 | 30992 ft | 403 kts | 256° |
| 2026-05-04 09:26 | 40.85529 | -0.35905 | 30990 ft | 400 kts | 250° |
| 2026-05-04 09:27 | 40.83844 | -0.42922 | 30988 ft | 401 kts | 250° |
| 2026-05-04 09:27 | 40.82149 | -0.49940 | 30993 ft | 401 kts | 250° |
| 2026-05-04 09:28 | 40.80444 | -0.56959 | 30996 ft | 401 kts | 249° |
| 2026-05-04 09:28 | 40.78745 | -0.63933 | 31004 ft | 401 kts | 249° |
| 2026-05-04 09:29 | 40.77032 | -0.70944 | 31006 ft | 402 kts | 249° |
| 2026-05-04 09:29 | 40.75317 | -0.77947 | 31003 ft | 401 kts | 249° |
| 2026-05-04 09:30 | 40.73600 | -0.84946 | 31009 ft | 401 kts | 249° |
| 2026-05-04 09:30 | 40.71878 | -0.91947 | 31002 ft | 401 kts | 249° |
| 2026-05-04 09:31 | 40.70155 | -0.98936 | 31005 ft | 401 kts | 249° |
| 2026-05-04 09:31 | 40.68429 | -1.05911 | 31009 ft | 400 kts | 249° |
| 2026-05-04 09:32 | 40.66699 | -1.12882 | 31013 ft | 400 kts | 249° |
| 2026-05-04 09:34 | 40.60044 | -1.39516 | 31010 ft | 399 kts | 249° |
| 2026-05-04 09:34 | 40.58302 | -1.46451 | 31008 ft | 399 kts | 249° |
| 2026-05-04 09:35 | 40.56550 | -1.53388 | 31005 ft | 399 kts | 249° |
| 2026-05-04 09:35 | 40.54809 | -1.60262 | 30999 ft | 398 kts | 249° |
| 2026-05-04 09:37 | 40.47782 | -1.87834 | 30999 ft | 397 kts | 249° |
| 2026-05-04 09:38 | 40.46023 | -1.94656 | 30997 ft | 397 kts | 248° |
| 2026-05-04 09:38 | 40.44249 | -2.01516 | 31003 ft | 396 kts | 248° |
| 2026-05-04 09:39 | 40.42487 | -2.08362 | 30996 ft | 396 kts | 248° |
| 2026-05-04 09:39 | 40.40116 | -2.14812 | 31009 ft | 392 kts | 233° |
| 2026-05-04 09:40 | 40.36180 | -2.19677 | 30993 ft | 395 kts | 216° |
| 2026-05-04 09:40 | 40.31605 | -2.23668 | 30987 ft | 395 kts | 217° |
| 2026-05-04 09:42 | 40.11896 | -2.37006 | 30978 ft | 400 kts | 211° |
| 2026-05-04 09:43 | 40.06958 | -2.40262 | 30979 ft | 400 kts | 211° |
| 2026-05-04 09:43 | 40.01987 | -2.43528 | 30974 ft | 400 kts | 211° |
| 2026-05-04 09:44 | 39.97013 | -2.46787 | 30992 ft | 400 kts | 211° |
| 2026-05-04 09:46 | 39.77116 | -2.59786 | 30986 ft | 401 kts | 211° |
| 2026-05-04 09:46 | 39.72120 | -2.63036 | 30986 ft | 401 kts | 211° |
| 2026-05-04 09:47 | 39.67123 | -2.66282 | 30983 ft | 402 kts | 211° |
| 2026-05-04 09:49 | 39.47115 | -2.79218 | 30989 ft | 403 kts | 211° |
| 2026-05-04 09:51 | 39.29546 | -2.90515 | 30993 ft | 403 kts | 211° |
| 2026-05-04 09:51 | 39.24512 | -2.93738 | 30990 ft | 403 kts | 211° |
| 2026-05-04 09:52 | 39.19480 | -2.96952 | 30990 ft | 404 kts | 211° |
| 2026-05-04 09:52 | 39.14441 | -3.00169 | 30994 ft | 404 kts | 211° |
| 2026-05-04 09:53 | 39.09402 | -3.03389 | 30995 ft | 404 kts | 211° |
| 2026-05-04 09:53 | 39.04359 | -3.06599 | 30997 ft | 405 kts | 211° |
| 2026-05-04 09:54 | 38.99336 | -3.09782 | 31000 ft | 405 kts | 211° |
| 2026-05-04 09:54 | 38.94277 | -3.12983 | 31004 ft | 405 kts | 211° |
| 2026-05-04 09:55 | 38.89221 | -3.16190 | 31009 ft | 405 kts | 211° |
| 2026-05-04 09:55 | 38.84164 | -3.19394 | 31007 ft | 405 kts | 211° |
| 2026-05-04 09:56 | 38.79097 | -3.22593 | 31009 ft | 405 kts | 211° |
| 2026-05-04 09:56 | 38.74068 | -3.25760 | 31012 ft | 405 kts | 211° |
| 2026-05-04 09:57 | 38.69002 | -3.28945 | 31007 ft | 405 kts | 211° |
| 2026-05-04 09:57 | 38.63928 | -3.32127 | 31010 ft | 405 kts | 211° |
| 2026-05-04 09:58 | 38.58866 | -3.35307 | 31013 ft | 405 kts | 211° |
| 2026-05-04 09:58 | 38.53810 | -3.38481 | 31015 ft | 405 kts | 211° |
| 2026-05-04 10:00 | 38.33600 | -3.51085 | 31022 ft | 404 kts | 211° |
| 2026-05-04 10:02 | 38.16110 | -3.62461 | 31021 ft | 397 kts | 223° |
| 2026-05-04 10:04 | 38.04846 | -3.81882 | 31041 ft | 391 kts | 237° |
| 2026-05-04 10:04 | 38.01770 | -3.87596 | 31030 ft | 392 kts | 237° |
| 2026-05-04 10:05 | 37.98690 | -3.93311 | 31026 ft | 392 kts | 237° |
| 2026-05-04 10:05 | 37.95629 | -3.98983 | 31032 ft | 393 kts | 237° |
| 2026-05-04 10:06 | 37.91771 | -4.03842 | 31028 ft | 403 kts | 213° |
| 2026-05-04 10:06 | 37.89091 | -4.05028 | 31020 ft | 417 kts | 197° |
| 2026-05-04 10:06 | 37.86207 | -4.05558 | 31018 ft | 420 kts | 194° |
| 2026-05-04 10:08 | 37.68519 | -4.07430 | 29894 ft | 427 kts | 192° |
| 2026-05-04 10:08 | 37.65560 | -4.07753 | 29604 ft | 427 kts | 192° |
| 2026-05-04 10:08 | 37.62596 | -4.08086 | 29321 ft | 428 kts | 192° |
| 2026-05-04 10:08 | 37.59626 | -4.08422 | 29042 ft | 429 kts | 192° |
| 2026-05-04 10:09 | 37.56683 | -4.08754 | 28767 ft | 430 kts | 192° |
| 2026-05-04 10:09 | 37.53696 | -4.09090 | 28117 ft | 430 kts | 192° |
| 2026-05-04 10:09 | 37.50689 | -4.09427 | 26981 ft | 435 kts | 192° |
| 2026-05-04 10:09 | 37.47649 | -4.09767 | 25856 ft | 439 kts | 191° |
| 2026-05-04 10:10 | 37.44624 | -4.10102 | 24742 ft | 444 kts | 191° |
| 2026-05-04 10:10 | 37.41535 | -4.10441 | 23639 ft | 447 kts | 190° |
| 2026-05-04 10:10 | 37.38435 | -4.10781 | 22579 ft | 445 kts | 190° |
| 2026-05-04 10:10 | 37.35376 | -4.11112 | 21731 ft | 439 kts | 190° |
| 2026-05-04 10:11 | 37.32351 | -4.11435 | 20859 ft | 434 kts | 190° |
| 2026-05-04 10:11 | 37.29357 | -4.11755 | 20001 ft | 429 kts | 189° |
| 2026-05-04 10:11 | 37.26398 | -4.12073 | 19149 ft | 425 kts | 190° |
| 2026-05-04 10:11 | 37.23463 | -4.12392 | 18309 ft | 422 kts | 189° |
| 2026-05-04 10:12 | 37.20551 | -4.12714 | 17403 ft | 417 kts | 189° |
| 2026-05-04 10:12 | 37.17679 | -4.13033 | 16565 ft | 412 kts | 189° |
| 2026-05-04 10:12 | 37.14837 | -4.13348 | 15761 ft | 407 kts | 189° |
| 2026-05-04 10:12 | 37.12025 | -4.13659 | 14972 ft | 403 kts | 189° |
| 2026-05-04 10:13 | 37.09245 | -4.13964 | 14206 ft | 399 kts | 189° |
| 2026-05-04 10:13 | 37.06495 | -4.14263 | 13441 ft | 394 kts | 189° |
| 2026-05-04 10:13 | 37.03813 | -4.14556 | 12723 ft | 389 kts | 189° |
| 2026-05-04 10:13 | 37.01129 | -4.14850 | 12027 ft | 385 kts | 189° |
| 2026-05-04 10:14 | 36.98479 | -4.15142 | 11385 ft | 380 kts | 189° |
| 2026-05-04 10:14 | 36.95908 | -4.15421 | 11206 ft | 361 kts | 189° |
| 2026-05-04 10:16 | 36.80724 | -4.17056 | 10270 ft | 278 kts | 190° |
| 2026-05-04 10:16 | 36.78801 | -4.17267 | 10210 ft | 277 kts | 190° |
| 2026-05-04 10:16 | 36.76876 | -4.17480 | 10116 ft | 278 kts | 190° |
| 2026-05-04 10:16 | 36.74950 | -4.17689 | 9992 ft | 277 kts | 190° |
| 2026-05-04 10:17 | 36.73029 | -4.17898 | 9499 ft | 283 kts | 189° |
| 2026-05-04 10:17 | 36.71087 | -4.18109 | 9240 ft | 279 kts | 189° |
| 2026-05-04 10:19 | 36.57662 | -4.19556 | 5845 ft | 273 kts | 188° |
| 2026-05-04 10:19 | 36.55776 | -4.19762 | 5268 ft | 271 kts | 187° |
| 2026-05-04 10:19 | 36.53942 | -4.19959 | 5017 ft | 257 kts | 187° |
| 2026-05-04 10:19 | 36.52215 | -4.20164 | 4884 ft | 243 kts | 193° |
| 2026-05-04 10:20 | 36.50744 | -4.21000 | 4781 ft | 228 kts | 224° |
| 2026-05-04 10:20 | 36.49884 | -4.22554 | 4665 ft | 214 kts | 253° |
| 2026-05-04 10:20 | 36.49744 | -4.24376 | 4243 ft | 218 kts | 280° |
| 2026-05-04 10:20 | 36.50396 | -4.26117 | 3662 ft | 232 kts | 308° |
| 2026-05-04 10:21 | 36.51493 | -4.27641 | 3219 ft | 237 kts | 310° |
| 2026-05-04 10:21 | 36.52573 | -4.29124 | 2885 ft | 231 kts | 310° |
| 2026-05-04 10:21 | 36.53636 | -4.30588 | 2551 ft | 224 kts | 310° |
| 2026-05-04 10:21 | 36.54664 | -4.32008 | 2233 ft | 217 kts | 310° |
| 2026-05-04 10:22 | 36.56593 | -4.34683 | 1884 ft | 197 kts | 310° |
| 2026-05-04 10:22 | 36.57494 | -4.35936 | 1815 ft | 190 kts | 310° |
| 2026-05-04 10:22 | 36.58359 | -4.37143 | 1727 ft | 184 kts | 310° |
| 2026-05-04 10:23 | 36.59204 | -4.38324 | 1712 ft | 182 kts | 310° |
| 2026-05-04 10:23 | 36.59757 | -4.39101 | 1712 ft | 181 kts | 310° |
| 2026-05-04 10:25 | 36.64890 | -4.46273 | 551 ft | 143 kts | 310° |
| 2026-05-04 10:25 | 36.65551 | -4.47197 | 394 ft | 143 kts | 311° |
| 2026-05-04 10:25 | 36.66209 | -4.48112 | 182 ft | 140 kts | 311° |
| 2026-05-04 10:25 | 36.66848 | -4.49009 | 47 ft | 134 kts | 311° |
| 2026-05-04 10:26 | 36.67360 | -4.49731 | 48 ft | 86 kts | 311° |
| 2026-05-04 10:26 | 36.67617 | -4.50081 | 53 ft | 31 kts | 313° |
| 2026-05-04 10:26 | 36.67775 | -4.50211 | 53 ft | 21 kts | 333° |
| 2026-05-04 10:26 | 36.67882 | -4.50194 | 46 ft | 19 kts | 77° |
| 2026-05-04 10:27 | 36.67804 | -4.50056 | 44 ft | 20 kts | 134° |
| 2026-05-04 10:27 | 36.67711 | -4.49924 | 43 ft | 21 kts | 131° |
| 2026-05-04 10:27 | 36.67614 | -4.49790 | 43 ft | 21 kts | 131° |
| 2026-05-04 10:27 | 36.67515 | -4.49648 | 43 ft | 22 kts | 133° |
| 2026-05-04 10:28 | 36.67409 | -4.49501 | 43 ft | 23 kts | 132° |
| 2026-05-04 10:28 | 36.67303 | -4.49351 | 42 ft | 22 kts | 132° |
| 2026-05-04 10:28 | 36.67300 | -4.49244 | 41 ft | 5 kts | 18° |
| 2026-05-04 10:28 | 36.67340 | -4.49264 | 41 ft | 7 kts | 334° |
| 2026-05-04 10:29 | 36.67395 | -4.49262 | 42 ft | 7 kts | 9° |
| 2026-05-04 10:29 | 36.67431 | -4.49254 | 42 ft | 2 kts | 9° |
| 2026-05-04 10:29 | 36.67435 | -4.49253 | 42 ft | 0 kts | 8° |